| time (UTC) | temp F | wind direction | speed knots | gust knots | rain 1hr in | rain 24hr in | rain mn in | humidity % | barometer mb |
| 20260506224840 | 59 | 296 | 0.9 | 3.5 | 0.12 | 0.47 | 0.02 | 82 | 1006.0 |
| 20260506224346 | 59 | 325 | 0.0 | 2.6 | 0.12 | 0.47 | 0.02 | 82 | 1005.9 |
| 20260506223826 | 59 | 325 | 0.0 | 2.6 | 0.12 | 0.47 | 0.02 | 81 | 1005.6 |
| 20260506223332 | 59 | 325 | 0.0 | 1.7 | 0.12 | 0.47 | 0.02 | 81 | 1005.6 |
| 20260506222834 | 59 | 325 | 0.0 | 2.6 | 0.16 | 0.47 | 0.02 | 81 | 1005.6 |
| 20260506222331 | 59 | 325 | 0.9 | 2.6 | 0.20 | 0.47 | 0.02 | 81 | 1005.8 |
| 20260506221830 | 59 | 324 | 0.0 | 0.9 | 0.20 | 0.47 | 0.02 | 81 | 1005.9 |
| 20260506221330 | 59 | 325 | 0.0 | 1.7 | 0.20 | 0.47 | 0.02 | 80 | 1005.9 |
| 20260506220849 | 59 | 325 | 0.0 | 1.7 | 0.24 | 0.47 | 0.02 | 80 | 1006.0 |
| 20260506220333 | 59 | 324 | 0.0 | 1.7 | 0.20 | 0.43 | 0.02 | 80 | 1006.2 |
| 20260506215906 | 59 | 324 | 0.0 | 0.9 | 0.16 | 0.39 | 0.01 | 80 | 1006.4 |
| 20260506215343 | 59 | 324 | 0.0 | 1.7 | 0.12 | 0.35 | 0.00 | 79 | 1006.7 |
| 20260506214845 | 59 | 325 | 0.9 | 1.7 | 0.16 | 0.35 | 0.07 | 79 | 1006.4 |
| 20260506214347 | 59 | 325 | 0.0 | 0.9 | 0.31 | 0.35 | 0.07 | 79 | 1005.9 |
| 20260506213906 | 60 | 325 | 0.0 | 0.9 | 0.35 | 0.35 | 0.07 | 78 | 1005.7 |
| 20260506213328 | 60 | 325 | 0.0 | 0.9 | 0.35 | 0.35 | 0.07 | 78 | 1005.9 |
| 20260506212831 | 60 | 325 | 0.0 | 0.9 | 0.31 | 0.31 | 0.06 | 77 | 1005.9 |
| 20260506212354 | 60 | 325 | 0.0 | 1.7 | 0.28 | 0.28 | 0.06 | 77 | 1006.0 |
| 20260506211836 | 60 | 325 | 0.0 | 3.5 | 0.28 | 0.28 | 0.06 | 77 | 1005.9 |
| 20260506211337 | 60 | 325 | 0.9 | 3.5 | 0.28 | 0.28 | 0.06 | 76 | 1005.7 |
| 20260506210836 | 60 | 325 | 0.9 | 7.0 | 0.24 | 0.24 | 0.05 | 76 | 1005.4 |
| 20260506210337 | 60 | 309 | 1.7 | 7.0 | 0.24 | 0.24 | 0.05 | 76 | 1005.6 |
| 20260506205828 | 61 | 262 | 4.3 | 7.0 | 0.24 | 0.24 | 0.05 | 75 | 1006.1 |
| 20260506205332 | 62 | 280 | 1.7 | 3.5 | 0.24 | 0.24 | 0.05 | 74 | 1005.5 |
| 20260506204834 | 62 | 281 | 1.7 | 2.6 | 0.16 | 0.16 | 0.03 | 74 | 1005.0 |
| 20260506204337 | 62 | 281 | 1.7 | 2.6 | 0.00 | 0.00 | 0.00 | 72 | 1004.9 |
| 20260506203838 | 62 | 284 | 0.0 | 0.0 | 0.00 | 0.00 | 0.00 | 72 | 1004.3 |
| 20260506203340 | 62 | 284 | 0.0 | 0.0 | 0.00 | 0.00 | 0.00 | 72 | 1004.3 |
| 20260506202822 | 62 | 284 | 0.0 | 0.0 | 0.00 | 0.00 | 0.00 | 72 | 1004.3 |
| 20260506202332 | 62 | 284 | 0.0 | 0.0 | 0.00 | 0.00 | 0.00 | 72 | 1004.4 |
| 20260506201831 | 62 | 284 | 0.0 | 0.0 | 0.00 | 0.00 | 0.00 | 71 | 1004.3 |
| 20260506201352 | 63 | 284 | 0.0 | 0.0 | 0.00 | 0.00 | 0.00 | 71 | 1004.6 |
| 20260506200851 | 63 | 284 | 0.0 | 0.0 | 0.00 | 0.00 | 0.00 | 71 | 1004.6 |
| 20260506200330 | 63 | 284 | 0.0 | 0.0 | 0.00 | 0.00 | 0.00 | 71 | 1004.7 |
| 20260506195841 | 63 | 284 | 0.0 | 0.0 | 0.00 | 0.00 | 0.00 | 71 | 1004.8 |
| 20260506195325 | 63 | 284 | 0.0 | 0.0 | 0.00 | 0.00 | 0.00 | 70 | 1004.8 |
| 20260506194827 | 63 | 284 | 0.0 | 0.0 | 0.00 | 0.00 | 0.00 | 70 | 1004.8 |
| 20260506194328 | 63 | 284 | 0.0 | 0.0 | 0.00 | 0.00 | 0.00 | 69 | 1004.9 |
| 20260506193827 | 63 | 284 | 0.0 | 0.0 | 0.00 | 0.00 | 0.00 | 69 | 1004.8 |
| 20260506193330 | 64 | 284 | 0.0 | 0.0 | 0.00 | 0.00 | 0.00 | 68 | 1004.9 |
| 20260506192830 | 64 | 284 | 0.0 | 0.0 | 0.00 | 0.00 | 0.00 | 68 | 1004.9 |
| 20260506192351 | 64 | 284 | 0.0 | 0.0 | 0.00 | 0.00 | 0.00 | 68 | 1004.9 |
| 20260506191830 | 64 | 284 | 0.0 | 0.0 | 0.00 | 0.00 | 0.00 | 68 | 1004.9 |
| 20260506191354 | 65 | 284 | 0.0 | 0.0 | 0.00 | 0.00 | 0.00 | 68 | 1004.8 |
| 20260506190852 | 65 | 284 | 0.0 | 0.0 | 0.00 | 0.00 | 0.00 | 67 | 1004.7 |
| 20260506190334 | 65 | 284 | 0.0 | 0.0 | 0.00 | 0.00 | 0.00 | 67 | 1004.6 |
| 20260506185905 | 65 | 284 | 0.0 | 0.0 | 0.00 | 0.00 | 0.00 | 66 | 1004.5 |
| 20260506185347 | 65 | 284 | 0.0 | 0.0 | 0.00 | 0.00 | 0.00 | 66 | 1004.4 |
| 20260506184831 | 65 | 284 | 0.0 | 0.0 | 0.00 | 0.00 | 0.00 | 65 | 1004.4 |
| 20260506184335 | 66 | 284 | 0.0 | 0.0 | 0.00 | 0.00 | 0.00 | 64 | 1004.3 |
| 20260506183836 | 66 | 284 | 0.0 | 0.0 | 0.00 | 0.00 | 0.00 | 64 | 1004.3 |
| 20260506183339 | 67 | 284 | 0.0 | 0.9 | 0.00 | 0.00 | 0.00 | 63 | 1004.3 |
| 20260506182837 | 67 | 284 | 0.0 | 0.9 | 0.00 | 0.00 | 0.00 | 62 | 1004.2 |
| 20260506182337 | 68 | 284 | 0.0 | 0.0 | 0.00 | 0.00 | 0.00 | 60 | 1004.1 |
| 20260506181839 | 68 | 284 | 0.0 | 0.0 | 0.00 | 0.00 | 0.00 | 59 | 1004.1 |
| 20260506181342 | 69 | 284 | 0.0 | 1.7 | 0.00 | 0.00 | 0.00 | 58 | 1004.1 |
| 20260506180841 | 69 | 284 | 0.0 | 1.7 | 0.00 | 0.00 | 0.00 | 55 | 1004.1 |
| 20260506180342 | 70 | 284 | 0.0 | 1.7 | 0.00 | 0.00 | 0.00 | 56 | 1004.1 |
| 20260506175834 | 71 | 284 | 0.0 | 2.6 | 0.00 | 0.00 | 0.00 | 54 | 1004.1 |
| 20260506175334 | 71 | 284 | 0.9 | 2.6 | 0.00 | 0.00 | 0.00 | 53 | 1004.1 |
| 20260506174834 | 72 | 284 | 0.9 | 3.5 | 0.00 | 0.00 | 0.00 | 53 | 1004.1 |
| 20260506174342 | 72 | 284 | 1.7 | 4.3 | 0.00 | 0.00 | 0.00 | 52 | 1004.1 |
| 20260506173843 | 72 | 284 | 2.6 | 4.3 | 0.00 | 0.00 | 0.00 | 52 | 1004.2 |
| 20260506173343 | 73 | 277 | 1.7 | 4.3 | 0.00 | 0.00 | 0.00 | 51 | 1004.1 |
| 20260506172826 | 73 | 273 | 1.7 | 4.3 | 0.00 | 0.00 | 0.00 | 51 | 1004.1 |
| 20260506172327 | 73 | 289 | 1.7 | 4.3 | 0.00 | 0.00 | 0.00 | 50 | 1004.1 |
| 20260506171830 | 73 | 290 | 1.7 | 5.2 | 0.00 | 0.00 | 0.00 | 49 | 1004.2 |
| 20260506171333 | 73 | 289 | 3.5 | 7.0 | 0.00 | 0.00 | 0.00 | 49 | 1004.2 |
| 20260506170833 | 74 | 275 | 2.6 | 7.0 | 0.00 | 0.00 | 0.00 | 48 | 1004.1 |
| 20260506170335 | 74 | 257 | 1.7 | 7.0 | 0.00 | 0.00 | 0.00 | 48 | 1004.1 |
| 20260506165826 | 74 | 241 | 4.3 | 7.8 | 0.00 | 0.00 | 0.00 | 48 | 1004.1 |
| 20260506165332 | 74 | 294 | 4.3 | 7.8 | 0.00 | 0.00 | 0.00 | 48 | 1004.1 |
| 20260506164834 | 74 | 269 | 3.5 | 7.8 | 0.00 | 0.00 | 0.00 | 49 | 1004.1 |
| 20260506164340 | 74 | 248 | 3.5 | 7.8 | 0.00 | 0.00 | 0.00 | 48 | 1004.1 |
| 20260506163843 | 74 | 256 | 4.3 | 7.8 | 0.00 | 0.00 | 0.00 | 49 | 1004.1 |
| 20260506163334 | 74 | 271 | 2.6 | 8.7 | 0.00 | 0.00 | 0.00 | 49 | 1004.1 |
| 20260506162834 | 74 | 267 | 4.3 | 8.7 | 0.00 | 0.00 | 0.00 | 49 | 1004.1 |
| 20260506162333 | 74 | 239 | 2.6 | 7.0 | 0.00 | 0.00 | 0.00 | 48 | 1004.1 |
| 20260506161835 | 74 | 282 | 3.5 | 8.7 | 0.00 | 0.00 | 0.00 | 49 | 1004.2 |
| 20260506161336 | 74 | 263 | 4.3 | 8.7 | 0.00 | 0.00 | 0.00 | 48 | 1004.3 |
| 20260506160838 | 74 | 262 | 4.3 | 8.7 | 0.00 | 0.00 | 0.00 | 48 | 1004.3 |
| 20260506160333 | 74 | 267 | 2.6 | 8.7 | 0.00 | 0.00 | 0.00 | 49 | 1004.3 |
| 20260506155843 | 74 | 296 | 4.3 | 9.6 | 0.00 | 0.00 | 0.00 | 48 | 1004.3 |
| 20260506155345 | 75 | 296 | 5.2 | 9.6 | 0.00 | 0.00 | 0.00 | 47 | 1004.3 |
| 20260506154845 | 75 | 262 | 3.5 | 10.4 | 0.00 | 0.00 | 0.00 | 46 | 1004.3 |
| 20260506154346 | 75 | 273 | 6.1 | 10.4 | 0.00 | 0.00 | 0.00 | 46 | 1004.3 |
| 20260506153830 | 76 | 205 | 2.6 | 7.0 | 0.00 | 0.00 | 0.00 | 46 | 1004.3 |
| 20260506153331 | 76 | 250 | 3.5 | 7.0 | 0.00 | 0.00 | 0.00 | 46 | 1004.3 |
| 20260506152830 | 76 | 215 | 2.6 | 11.3 | 0.00 | 0.00 | 0.00 | 46 | 1004.2 |
| 20260506152333 | 76 | 264 | 5.2 | 11.3 | 0.00 | 0.00 | 0.00 | 46 | 1004.3 |
| 20260506151833 | 76 | 238 | 3.5 | 8.7 | 0.00 | 0.00 | 0.00 | 47 | 1004.3 |
| 20260506151346 | 76 | 286 | 5.2 | 12.2 | 0.00 | 0.00 | 0.00 | 47 | 1004.3 |
| 20260506150825 | 76 | 272 | 6.1 | 12.2 | 0.00 | 0.00 | 0.00 | 46 | 1004.4 |
| 20260506150332 | 76 | 279 | 3.5 | 10.4 | 0.00 | 0.00 | 0.00 | 49 | 1004.3 |
| 20260506145845 | 75 | 269 | 4.3 | 10.4 | 0.00 | 0.00 | 0.00 | 50 | 1004.4 |
| 20260506145346 | 75 | 283 | 5.2 | 12.2 | 0.00 | 0.00 | 0.00 | 49 | 1004.4 |
| 20260506144845 | 75 | 279 | 7.0 | 12.2 | 0.00 | 0.00 | 0.00 | 49 | 1004.3 |
| 20260506144345 | 75 | 279 | 6.1 | 13.0 | 0.00 | 0.00 | 0.00 | 49 | 1004.3 |
| 20260506143844 | 76 | 265 | 7.0 | 13.0 | 0.00 | 0.00 | 0.00 | 47 | 1004.3 |
| 20260506143405 | 76 | 238 | 7.8 | 11.3 | 0.00 | 0.00 | 0.00 | 48 | 1004.2 |
| 20260506142828 | 76 | 265 | 2.6 | 11.3 | 0.00 | 0.00 | 0.00 | 51 | 1004.3 |
| 20260506142329 | 76 | 279 | 6.1 | 12.2 | 0.00 | 0.00 | 0.00 | 49 | 1004.3 |
| 20260506141832 | 76 | 220 | 4.3 | 12.2 | 0.00 | 0.00 | 0.00 | 48 | 1004.3 |
| 20260506141333 | 76 | 259 | 3.5 | 9.6 | 0.00 | 0.00 | 0.00 | 48 | 1004.4 |
| 20260506140853 | 75 | 267 | 1.7 | 7.0 | 0.00 | 0.00 | 0.00 | 52 | 1004.4 |
| 20260506140333 | 74 | 234 | 2.6 | 8.7 | 0.00 | 0.00 | 0.00 | 52 | 1004.4 |
| 20260506135843 | 74 | 231 | 4.3 | 9.6 | 0.00 | 0.00 | 0.00 | 53 | 1004.4 |
| 20260506135339 | 74 | 277 | 3.5 | 8.7 | 0.00 | 0.00 | 0.00 | 54 | 1004.4 |
| 20260506134842 | 74 | 229 | 3.5 | 8.7 | 0.00 | 0.00 | 0.00 | 53 | 1004.5 |
| 20260506134359 | 74 | 277 | 4.3 | 8.7 | 0.00 | 0.00 | 0.00 | 53 | 1004.4 |
| 20260506133838 | 74 | 267 | 2.6 | 9.6 | 0.00 | 0.00 | 0.00 | 53 | 1004.4 |
| 20260506133338 | 74 | 290 | 4.3 | 9.6 | 0.00 | 0.00 | 0.00 | 54 | 1004.4 |
| 20260506132836 | 74 | 232 | 1.7 | 7.8 | 0.00 | 0.00 | 0.00 | 52 | 1004.4 |
| 20260506132336 | 75 | 266 | 3.5 | 9.6 | 0.00 | 0.00 | 0.00 | 52 | 1004.3 |
| 20260506131834 | 75 | 267 | 4.3 | 14.8 | 0.00 | 0.00 | 0.00 | 52 | 1004.4 |
| 20260506131335 | 75 | 285 | 6.1 | 14.8 | 0.00 | 0.00 | 0.00 | 52 | 1004.3 |
| 20260506130841 | 75 | 260 | 5.2 | 11.3 | 0.00 | 0.00 | 0.00 | 53 | 1004.4 |
| 20260506130342 | 74 | 273 | 3.5 | 9.6 | 0.00 | 0.00 | 0.00 | 55 | 1004.4 |
| 20260506125832 | 73 | 259 | 4.3 | 7.0 | 0.00 | 0.00 | 0.00 | 54 | 1004.5 |
| 20260506125335 | 73 | 197 | 2.6 | 7.8 | 0.00 | 0.00 | 0.00 | 54 | 1004.5 |
| 20260506124858 | 73 | 214 | 2.6 | 9.6 | 0.00 | 0.00 | 0.00 | 54 | 1004.5 |
| 20260506124334 | 73 | 257 | 3.5 | 8.7 | 0.00 | 0.00 | 0.00 | 55 | 1004.5 |
| 20260506123837 | 73 | 227 | 1.7 | 6.1 | 0.00 | 0.00 | 0.00 | 55 | 1004.4 |
| 20260506123359 | 73 | 228 | 2.6 | 6.1 | 0.00 | 0.00 | 0.00 | 55 | 1004.5 |
| 20260506122838 | 73 | 271 | 2.6 | 6.1 | 0.00 | 0.00 | 0.00 | 55 | 1004.5 |
| 20260506122338 | 73 | 268 | 3.5 | 7.8 | 0.00 | 0.00 | 0.00 | 56 | 1004.5 |
| 20260506121838 | 72 | 256 | 3.5 | 8.7 | 0.00 | 0.00 | 0.00 | 57 | 1004.5 |
| 20260506121342 | 72 | 213 | 2.6 | 9.6 | 0.00 | 0.00 | 0.00 | 56 | 1004.5 |
| 20260506120844 | 72 | 241 | 3.5 | 9.6 | 0.00 | 0.00 | 0.00 | 58 | 1004.5 |
| 20260506120358 | 72 | 271 | 2.6 | 9.6 | 0.00 | 0.00 | 0.00 | 58 | 1004.4 |
| 20260506115831 | 73 | 286 | 6.1 | 10.4 | 0.00 | 0.00 | 0.00 | 57 | 1004.4 |
| 20260506115333 | 72 | 259 | 2.6 | 7.8 | 0.00 | 0.00 | 0.00 | 58 | 1004.5 |
| 20260506114840 | 72 | 234 | 3.5 | 10.4 | 0.00 | 0.00 | 0.00 | 57 | 1004.5 |
| 20260506114344 | 72 | 292 | 6.1 | 10.4 | 0.00 | 0.00 | 0.00 | 58 | 1004.5 |
| 20260506113824 | 72 | 224 | 4.3 | 7.0 | 0.00 | 0.00 | 0.00 | 57 | 1004.5 |
| 20260506113328 | 73 | 159 | 3.5 | 9.6 | 0.00 | 0.00 | 0.00 | 57 | 1004.6 |
| 20260506112847 | 73 | 236 | 3.5 | 10.4 | 0.00 | 0.00 | 0.00 | 57 | 1004.5 |
| 20260506112333 | 72 | 296 | 5.2 | 9.6 | 0.00 | 0.00 | 0.00 | 58 | 1004.5 |
| 20260506111856 | 72 | 255 | 3.5 | 8.7 | 0.00 | 0.00 | 0.00 | 59 | 1004.5 |
| 20260506111347 | 71 | 257 | 2.6 | 10.4 | 0.00 | 0.00 | 0.00 | 59 | 1004.5 |
| 20260506110827 | 72 | 259 | 3.5 | 10.4 | 0.00 | 0.00 | 0.00 | 58 | 1004.5 |
| 20260506110331 | 72 | 265 | 4.3 | 8.7 | 0.00 | 0.00 | 0.00 | 59 | 1004.5 |
| 20260506105842 | 72 | 246 | 1.7 | 7.0 | 0.00 | 0.00 | 0.00 | 60 | 1004.5 |
| 20260506105343 | 72 | 261 | 4.3 | 7.0 | 0.00 | 0.00 | 0.00 | 58 | 1004.5 |
| 20260506104842 | 71 | 252 | 2.6 | 6.1 | 0.00 | 0.00 | 0.00 | 60 | 1004.4 |
| 20260506104359 | 71 | 256 | 1.7 | 12.2 | 0.00 | 0.00 | 0.00 | 60 | 1004.3 |
| 20260506103857 | 71 | 223 | 5.2 | 12.2 | 0.00 | 0.00 | 0.00 | 61 | 1004.3 |
| 20260506103338 | 70 | 267 | 7.0 | 10.4 | 0.00 | 0.00 | 0.00 | 60 | 1004.4 |
| 20260506102837 | 71 | 269 | 4.3 | 8.7 | 0.00 | 0.00 | 0.00 | 59 | 1004.4 |
| 20260506102344 | 71 | 306 | 4.3 | 8.7 | 0.00 | 0.00 | 0.00 | 59 | 1004.4 |
| 20260506101826 | 71 | 216 | 1.7 | 5.2 | 0.00 | 0.00 | 0.00 | 59 | 1004.3 |
| 20260506101330 | 71 | 225 | 2.6 | 7.8 | 0.00 | 0.00 | 0.00 | 60 | 1004.3 |
| 20260506100830 | 71 | 194 | 3.5 | 9.6 | 0.00 | 0.00 | 0.00 | 60 | 1004.4 |
| 20260506100354 | 71 | 242 | 4.3 | 9.6 | 0.00 | 0.00 | 0.00 | 59 | 1004.3 |
| 20260506095906 | 72 | 290 | 4.3 | 9.6 | 0.00 | 0.00 | 0.00 | 58 | 1004.3 |
| 20260506095347 | 72 | 252 | 5.2 | 9.6 | 0.00 | 0.00 | 0.00 | 60 | 1004.3 |
| 20260506094826 | 71 | 301 | 6.1 | 9.6 | 0.00 | 0.00 | 0.00 | 58 | 1004.2 |
| 20260506094349 | 71 | 249 | 3.5 | 9.6 | 0.00 | 0.00 | 0.00 | 59 | 1004.2 |
| 20260506093850 | 71 | 226 | 5.2 | 11.3 | 0.00 | 0.00 | 0.00 | 59 | 1004.2 |
| 20260506093331 | 71 | 284 | 6.1 | 11.3 | 0.00 | 0.00 | 0.00 | 60 | 1004.2 |
| 20260506092834 | 71 | 265 | 4.3 | 10.4 | 0.00 | 0.00 | 0.00 | 59 | 1004.1 |
| 20260506092351 | 71 | 265 | 7.0 | 10.4 | 0.00 | 0.00 | 0.00 | 59 | 1004.1 |
| 20260506091830 | 72 | 239 | 3.5 | 9.6 | 0.00 | 0.00 | 0.00 | 59 | 1004.0 |
| 20260506091352 | 71 | 205 | 2.6 | 11.3 | 0.00 | 0.00 | 0.00 | 59 | 1004.0 |
| 20260506090830 | 71 | 225 | 4.3 | 11.3 | 0.00 | 0.00 | 0.00 | 60 | 1004.0 |
| 20260506090331 | 71 | 265 | 4.3 | 8.7 | 0.00 | 0.00 | 0.00 | 59 | 1004.0 |
| 20260506085905 | 71 | 242 | 3.5 | 7.8 | 0.00 | 0.00 | 0.00 | 61 | 1004.0 |
| 20260506085326 | 70 | 227 | 2.6 | 7.8 | 0.00 | 0.00 | 0.00 | 61 | 1004.0 |
| 20260506084834 | 69 | 163 | 2.6 | 9.6 | 0.00 | 0.00 | 0.00 | 62 | 1003.9 |
| 20260506084337 | 69 | 194 | 4.3 | 9.6 | 0.00 | 0.00 | 0.00 | 62 | 1003.8 |
| 20260506083836 | 69 | 302 | 4.3 | 8.7 | 0.00 | 0.00 | 0.00 | 61 | 1004.0 |
| 20260506083339 | 69 | 197 | 3.5 | 9.6 | 0.00 | 0.00 | 0.00 | 62 | 1003.9 |
| 20260506082838 | 69 | 202 | 4.3 | 13.9 | 0.00 | 0.00 | 0.00 | 61 | 1003.9 |
| 20260506082338 | 69 | 235 | 4.3 | 16.5 | 0.00 | 0.00 | 0.00 | 61 | 1004.0 |
| 20260506081838 | 69 | 213 | 3.5 | 8.7 | 0.00 | 0.00 | 0.00 | 61 | 1003.9 |
| 20260506081333 | 69 | 229 | 3.5 | 9.6 | 0.00 | 0.00 | 0.00 | 62 | 1003.8 |
| 20260506080855 | 69 | 222 | 3.5 | 9.6 | 0.00 | 0.00 | 0.00 | 62 | 1003.8 |
| 20260506080336 | 69 | 234 | 4.3 | 7.8 | 0.00 | 0.00 | 0.00 | 62 | 1003.8 |
| 20260506073341 | 67 | 217 | 3.5 | 7.0 | 0.00 | 0.00 | 0.00 | 64 | 1003.7 |
| 20260506072904 | 67 | 221 | 2.6 | 6.1 | 0.00 | 0.00 | 0.00 | 65 | 1003.5 |
| 20260506072337 | 67 | 196 | 2.6 | 6.1 | 0.00 | 0.00 | 0.00 | 65 | 1003.6 |
| 20260506071836 | 66 | 227 | 3.5 | 6.1 | 0.00 | 0.00 | 0.00 | 66 | 1003.6 |
| 20260506071353 | 66 | 200 | 3.5 | 6.1 | 0.00 | 0.00 | 0.00 | 66 | 1003.5 |
| 20260506070831 | 65 | 187 | 0.9 | 5.2 | 0.00 | 0.00 | 0.00 | 68 | 1003.4 |
| 20260506070331 | 65 | 194 | 1.7 | 6.1 | 0.00 | 0.00 | 0.00 | 66 | 1003.3 |
| 20260506062329 | 64 | 242 | 1.7 | 5.2 | 0.00 | 0.00 | 0.00 | 68 | 1003.3 |
| 20260506061829 | 63 | 199 | 1.7 | 3.5 | 0.00 | 0.00 | 0.00 | 68 | 1003.3 |
| 20260506061335 | 63 | 168 | 0.9 | 5.2 | 0.00 | 0.00 | 0.00 | 68 | 1003.3 |
| 20260506060834 | 63 | 196 | 0.9 | 4.3 | 0.00 | 0.00 | 0.00 | 68 | 1003.2 |
| 20260506060336 | 63 | 164 | 0.0 | 2.6 | 0.00 | 0.00 | 0.00 | 68 | 1003.2 |
| 20260506051329 | 60 | 209 | 1.7 | 3.5 | 0.00 | 0.00 | 0.00 | 74 | 1003.4 |
| 20260506050829 | 59 | 209 | 0.9 | 4.3 | 0.00 | 0.00 | 0.00 | 75 | 1003.4 |
| 20260506050345 | 58 | 234 | 0.9 | 4.3 | 0.00 | 0.00 | 0.00 | 77 | 1003.4 |
| 20260506044905 | 56 | 68 | 0.0 | 0.9 | 0.00 | 0.00 | 0.00 | 83 | 1003.6 |
| 20260506044325 | 56 | 66 | 0.0 | 0.0 | 0.00 | 0.00 | 0.00 | 83 | 1003.6 |
| 20260506043848 | 56 | 66 | 0.0 | 0.0 | 0.00 | 0.00 | 0.00 | 84 | 1003.7 |
| 20260506043329 | 56 | 66 | 0.0 | 0.0 | 0.00 | 0.00 | 0.00 | 84 | 1003.7 |
| 20260506042828 | 55 | 66 | 0.0 | 0.0 | 0.00 | 0.00 | 0.00 | 84 | 1003.6 |
| 20260506042354 | 54 | 66 | 0.0 | 0.0 | 0.00 | 0.00 | 0.00 | 84 | 1003.7 |
| 20260506041836 | 53 | 66 | 0.0 | 0.0 | 0.00 | 0.00 | 0.00 | 83 | 1003.7 |
| 20260506041334 | 53 | 66 | 0.0 | 0.0 | 0.00 | 0.00 | 0.00 | 83 | 1003.7 |
| 20260506040834 | 53 | 66 | 0.0 | 0.0 | 0.00 | 0.00 | 0.00 | 83 | 1003.6 |
| 20260506040327 | 53 | 66 | 0.0 | 0.0 | 0.00 | 0.00 | 0.00 | 83 | 1003.7 |
| 20260506035842 | 53 | 66 | 0.0 | 0.0 | 0.00 | 0.00 | 0.00 | 83 | 1003.7 |
| 20260506035344 | 53 | 66 | 0.0 | 0.0 | 0.00 | 0.00 | 0.00 | 83 | 1003.7 |
| 20260506034824 | 52 | 66 | 0.0 | 0.0 | 0.00 | 0.00 | 0.00 | 83 | 1003.8 |
| 20260506034330 | 52 | 66 | 0.0 | 0.0 | 0.00 | 0.00 | 0.00 | 83 | 1003.8 |
| 20260506033833 | 52 | 66 | 0.0 | 0.0 | 0.00 | 0.00 | 0.00 | 83 | 1003.8 |
| 20260506033330 | 52 | 66 | 0.0 | 0.0 | 0.00 | 0.00 | 0.00 | 83 | 1003.8 |
| 20260506032830 | 52 | 66 | 0.0 | 0.0 | 0.00 | 0.00 | 0.00 | 82 | 1003.8 |
| 20260506032329 | 52 | 66 | 0.0 | 0.0 | 0.00 | 0.00 | 0.00 | 82 | 1003.9 |
| 20260506031833 | 52 | 66 | 0.0 | 0.0 | 0.00 | 0.00 | 0.00 | 82 | 1004.0 |
| 20260506031338 | 52 | 66 | 0.0 | 0.0 | 0.00 | 0.00 | 0.00 | 82 | 1004.0 |
| 20260506030836 | 52 | 66 | 0.0 | 0.0 | 0.00 | 0.00 | 0.00 | 82 | 1004.0 |
| 20260506030336 | 52 | 60 | 0.0 | 0.0 | 0.00 | 0.00 | 0.00 | 82 | 1004.0 |
| 20260506025826 | 53 | 60 | 0.0 | 0.0 | 0.00 | 0.00 | 0.00 | 82 | 1004.0 |
| 20260506025329 | 53 | 60 | 0.0 | 0.0 | 0.00 | 0.00 | 0.00 | 82 | 1004.1 |
| 20260506024829 | 53 | 60 | 0.0 | 0.0 | 0.00 | 0.00 | 0.00 | 81 | 1004.0 |
| 20260506024328 | 53 | 60 | 0.0 | 0.0 | 0.00 | 0.00 | 0.00 | 82 | 1004.1 |
| 20260506023827 | 53 | 60 | 0.0 | 0.0 | 0.00 | 0.00 | 0.00 | 82 | 1004.0 |
| 20260506023334 | 53 | 60 | 0.0 | 0.0 | 0.00 | 0.00 | 0.00 | 82 | 1004.1 |
| 20260506022837 | 53 | 60 | 0.0 | 0.0 | 0.00 | 0.00 | 0.00 | 82 | 1004.1 |
| 20260506022338 | 53 | 60 | 0.0 | 2.6 | 0.00 | 0.00 | 0.00 | 82 | 1004.2 |
| 20260506021841 | 53 | 60 | 0.0 | 2.6 | 0.00 | 0.00 | 0.00 | 82 | 1004.2 |
| 20260506021342 | 53 | 60 | 0.0 | 3.5 | 0.00 | 0.00 | 0.00 | 81 | 1004.2 |
| 20260506020841 | 54 | 60 | 1.7 | 3.5 | 0.00 | 0.00 | 0.00 | 81 | 1004.2 |
| 20260506020339 | 54 | 61 | 0.0 | 0.9 | 0.00 | 0.00 | 0.00 | 81 | 1004.3 |
| 20260506015834 | 54 | 61 | 0.0 | 0.0 | 0.00 | 0.00 | 0.00 | 81 | 1004.3 |
| 20260506015334 | 54 | 61 | 0.0 | 1.7 | 0.00 | 0.00 | 0.00 | 81 | 1004.3 |
| 20260506014833 | 54 | 61 | 0.0 | 1.7 | 0.00 | 0.00 | 0.00 | 81 | 1004.3 |
| 20260506014335 | 54 | 61 | 0.0 | 1.7 | 0.00 | 0.00 | 0.00 | 81 | 1004.3 |
| 20260506013855 | 54 | 61 | 0.0 | 1.7 | 0.00 | 0.00 | 0.00 | 81 | 1004.2 |
| 20260506013332 | 54 | 61 | 0.0 | 2.6 | 0.00 | 0.00 | 0.00 | 81 | 1004.2 |
| 20260506012832 | 54 | 61 | 0.0 | 4.3 | 0.00 | 0.00 | 0.00 | 81 | 1004.3 |
| 20260506012354 | 54 | 59 | 1.7 | 4.3 | 0.00 | 0.00 | 0.00 | 81 | 1004.3 |
| 20260506011836 | 55 | 61 | 0.0 | 0.9 | 0.00 | 0.00 | 0.00 | 80 | 1004.4 |
| 20260506011346 | 55 | 61 | 0.0 | 1.7 | 0.00 | 0.00 | 0.00 | 80 | 1004.4 |
| 20260506010845 | 55 | 61 | 0.9 | 1.7 | 0.00 | 0.00 | 0.00 | 80 | 1004.4 |
| 20260506010400 | 55 | 62 | 0.0 | 0.9 | 0.00 | 0.00 | 0.00 | 80 | 1004.4 |
| 20260506005849 | 55 | 62 | 0.0 | 0.9 | 0.00 | 0.00 | 0.00 | 80 | 1004.5 |
| 20260506005334 | 55 | 62 | 0.0 | 0.9 | 0.00 | 0.00 | 0.00 | 80 | 1004.4 |
| 20260506004834 | 55 | 62 | 0.0 | 0.0 | 0.00 | 0.00 | 0.00 | 80 | 1004.4 |
| 20260506004334 | 55 | 62 | 0.0 | 0.9 | 0.00 | 0.00 | 0.00 | 80 | 1004.3 |
| 20260506003833 | 55 | 62 | 0.0 | 0.9 | 0.00 | 0.00 | 0.00 | 80 | 1004.4 |
| 20260506003351 | 55 | 62 | 0.0 | 0.0 | 0.00 | 0.00 | 0.00 | 79 | 1004.4 |
| 20260506002829 | 55 | 61 | 0.0 | 0.9 | 0.00 | 0.00 | 0.00 | 79 | 1004.4 |
| 20260506002332 | 56 | 61 | 0.0 | 4.3 | 0.00 | 0.00 | 0.00 | 79 | 1004.4 |
| 20260506001831 | 56 | 61 | 0.0 | 4.3 | 0.00 | 0.00 | 0.00 | 80 | 1004.5 |
| 20260506001333 | 55 | 61 | 2.6 | 4.3 | 0.00 | 0.00 | 0.00 | 80 | 1004.4 |
| 20260506000836 | 55 | 275 | 0.0 | 5.2 | 0.00 | 0.00 | 0.00 | 79 | 1004.6 |
| 20260506000340 | 55 | 275 | 3.5 | 5.2 | 0.00 | 0.00 | 0.00 | 79 | 1004.7 |
| 20260505235833 | 55 | 84 | 0.9 | 6.1 | 0.00 | 0.00 | 0.00 | 79 | 1004.5 |
| 20260505235400 | 55 | 266 | 2.6 | 5.2 | 0.00 | 0.00 | 0.00 | 79 | 1004.8 |
| 20260505234826 | 55 | 72 | 0.9 | 3.5 | 0.00 | 0.00 | 0.00 | 79 | 1004.6 |
| 20260505234329 | 55 | 78 | 0.0 | 3.5 | 0.00 | 0.00 | 0.00 | 78 | 1004.8 |
| 20260505233833 | 56 | 79 | 0.9 | 3.5 | 0.00 | 0.00 | 0.00 | 78 | 1004.7 |
| 20260505233334 | 56 | 80 | 0.9 | 4.3 | 0.00 | 0.00 | 0.00 | 78 | 1004.8 |
| 20260505232834 | 56 | 80 | 0.0 | 4.3 | 0.00 | 0.00 | 0.00 | 78 | 1004.8 |
| 20260505232335 | 56 | 82 | 0.9 | 2.6 | 0.00 | 0.00 | 0.00 | 78 | 1004.8 |
| 20260505231832 | 56 | 82 | 0.9 | 2.6 | 0.00 | 0.00 | 0.00 | 78 | 1004.9 |
| 20260505231334 | 56 | 72 | 0.0 | 3.5 | 0.00 | 0.00 | 0.00 | 78 | 1005.0 |
| 20260505230834 | 57 | 74 | 1.7 | 3.5 | 0.00 | 0.00 | 0.00 | 78 | 1004.9 |
| 20260505230338 | 57 | 78 | 0.9 | 3.5 | 0.00 | 0.00 | 0.00 | 78 | 1005.0 |
| 20260505225849 | 57 | 78 | 1.7 | 3.5 | 0.00 | 0.00 | 0.00 | 77 | 1005.0 |
| 20260505225330 | 57 | 94 | 0.9 | 4.3 | 0.00 | 0.00 | 0.00 | 77 | 1005.0 |